Main page
METAR-TAF:

METAR-TAF

Airports :

Adelaide, Australia

Adelaide Airport

latitude: 34-56S, longitude: 138-31E, elevation: 6 m

Current weather observation

The report was made 41 minutes ago, at 15:00 UTC
Wind 6 kt from the South/Southeast
Temperature 17°C
Humidity 72%
Pressure 1009 hPa
Visibility 10 km or more
no clouds below 1500 m and no cumulonimbus

METAR: YPAD 231500Z 16006KT CAVOK 17/12 Q1009 NOSIG

Time: 02:11 (15:41 UTC)

Forecast

The report was made 4 hours and 9 minutes ago, at 11:32 UTC
Forecast valid from 23 at 12 UTC to 24 at 18 UTC
Wind 12 kt from the South/Southeast
Visibility 10 km or more
no clouds below 1500 m and no cumulonimbus

TAF: YPAD 231132Z 2312/2418 15012KT CAVOK

Weather observations and forecasts of more than 4000 airports (METAR and TAF reports).

The available stations are represented by yellow and red dots on the map.

Hover mouse over dot to see the name of the station.

Then click to see weather observations and forecasts.

To change the map : click on the green buttons with a black cross to zoom in, on the green button with a dash to zoom out, or on the green arrows for adjacent maps.


METAR-TAF: